createdAt,value
2022-08-03T00:00:08.970Z,18.61
2022-08-03T00:03:06.356Z,17.90
2022-08-03T00:06:03.966Z,17.42
2022-08-03T00:08:53.190Z,17.37
2022-08-03T00:11:41.300Z,18.25
2022-08-03T00:14:29.203Z,18.93
2022-08-03T00:17:17.170Z,19.31
2022-08-03T00:20:05.801Z,19.60
2022-08-03T00:22:54.118Z,19.84
2022-08-03T00:25:42.167Z,19.80
2022-08-03T00:28:30.544Z,18.93
2022-08-03T00:31:19.756Z,18.12
2022-08-03T00:34:36.284Z,17.49
2022-08-03T00:37:41.736Z,17.42
2022-08-03T00:40:30.274Z,18.31
2022-08-03T00:43:18.310Z,18.97
2022-08-03T00:46:05.988Z,19.31
2022-08-03T00:48:54.327Z,19.54
2022-08-03T00:51:41.987Z,19.73
2022-08-03T00:54:30.731Z,19.88
2022-08-03T00:57:19.384Z,19.70
2022-08-03T01:00:10.468Z,18.83
2022-08-03T01:02:58.281Z,18.05
2022-08-03T01:05:52.301Z,17.52
2022-08-03T01:08:52.730Z,17.47
2022-08-03T01:12:04.293Z,18.54
2022-08-03T01:15:28.319Z,19.41
2022-08-03T01:18:43.005Z,19.89
2022-08-03T01:22:14.505Z,20.07
2022-08-03T01:25:30.571Z,19.11
2022-08-03T01:28:51.200Z,18.25
2022-08-03T01:32:58.898Z,17.70
2022-08-03T01:35:17.500Z,17.88
2022-08-03T01:38:22.172Z,19.06
2022-08-03T01:41:20.302Z,19.76
2022-08-03T01:44:29.201Z,20.19
2022-08-03T01:47:22.899Z,20.16
2022-08-03T01:50:12.575Z,19.32
2022-08-03T01:53:01.981Z,18.61
2022-08-03T01:55:54.344Z,18.09
2022-08-03T01:58:44.866Z,17.69
2022-08-03T02:02:29.184Z,17.74
2022-08-03T02:04:47.928Z,18.88
2022-08-03T02:07:37.689Z,19.61
2022-08-03T02:10:35.200Z,20.04
2022-08-03T02:13:25.495Z,20.00
2022-08-03T02:16:14.732Z,19.11
2022-08-03T02:19:06.811Z,18.37
2022-08-03T02:21:57.042Z,17.85
2022-08-03T02:24:51.069Z,17.86
2022-08-03T02:27:46.405Z,18.81
2022-08-03T02:30:39.466Z,19.55
2022-08-03T02:33:34.544Z,19.98
2022-08-03T02:36:31.489Z,19.93
2022-08-03T02:39:25.088Z,19.10
2022-08-03T02:42:15.813Z,18.40
2022-08-03T02:45:12.565Z,18.21
2022-08-03T02:48:04.325Z,19.02
2022-08-03T02:50:54.895Z,19.60
2022-08-03T02:53:45.321Z,19.28
2022-08-03T02:56:34.577Z,18.59
2022-08-03T02:59:23.643Z,18.05
2022-08-03T03:02:14.880Z,18.03
2022-08-03T03:05:55.823Z,18.97
2022-08-03T03:08:17.682Z,19.71
2022-08-03T03:11:09.048Z,19.85
2022-08-03T03:13:58.721Z,19.11
2022-08-03T03:16:51.837Z,18.46
2022-08-03T03:19:46.775Z,18.36
2022-08-03T03:22:36.408Z,19.25
2022-08-03T03:25:25.145Z,19.91
2022-08-03T03:28:13.144Z,19.96
2022-08-03T03:31:01.665Z,19.26
2022-08-03T03:33:49.899Z,18.66
2022-08-03T03:36:38.238Z,18.27
2022-08-03T03:39:26.120Z,18.30
2022-08-03T03:42:14.741Z,19.29
2022-08-03T03:45:08.489Z,20.10
2022-08-03T03:47:56.308Z,20.66
2022-08-03T03:50:45.844Z,20.78
2022-08-03T03:53:33.547Z,20.12
2022-08-03T03:56:21.475Z,19.55
2022-08-03T03:59:09.551Z,19.18
2022-08-03T04:01:59.126Z,18.94
2022-08-03T04:05:05.954Z,19.05
2022-08-03T04:08:19.984Z,20.23
2022-08-03T04:11:30.086Z,21.09
2022-08-03T04:14:37.767Z,20.75
2022-08-03T04:17:29.631Z,20.16
2022-08-03T04:20:21.684Z,19.83
2022-08-03T04:23:15.422Z,19.66
2022-08-03T04:26:09.789Z,19.55
2022-08-03T04:28:59.112Z,19.49
2022-08-03T04:31:48.808Z,19.50
2022-08-03T04:34:37.172Z,19.58
2022-08-03T04:37:48.069Z,19.99
2022-08-03T04:40:39.995Z,21.35
2022-08-03T04:43:29.604Z,21.61
2022-08-03T04:46:22.235Z,21.28
2022-08-03T04:49:10.542Z,21.09
2022-08-03T04:51:59.814Z,21.02
2022-08-03T04:54:50.525Z,21.01
2022-08-03T04:57:39.039Z,21.01
2022-08-03T05:00:27.484Z,21.03
2022-08-03T05:03:20.469Z,21.07
2022-08-03T05:06:13.096Z,21.13
2022-08-03T05:09:04.480Z,21.20
2022-08-03T05:11:53.739Z,21.27
2022-08-03T05:14:41.720Z,21.37
2022-08-03T05:17:29.750Z,21.46
2022-08-03T05:20:19.141Z,21.59
2022-08-03T05:23:07.210Z,21.75
2022-08-03T05:25:55.145Z,21.96
2022-08-03T05:28:50.898Z,22.18
2022-08-03T05:31:40.955Z,22.41
2022-08-03T05:34:29.322Z,22.63
2022-08-03T05:37:17.354Z,22.87
2022-08-03T05:40:06.358Z,23.13
2022-08-03T05:42:54.322Z,23.47
2022-08-03T05:45:42.288Z,23.82
2022-08-03T05:48:30.033Z,24.19
2022-08-03T05:51:18.311Z,24.66
2022-08-03T05:54:06.448Z,25.13
2022-08-03T05:56:54.394Z,25.82
2022-08-03T05:59:53.848Z,26.74
2022-08-03T06:02:46.663Z,27.82
2022-08-03T06:05:37.259Z,28.70
2022-08-03T06:08:31.438Z,29.85
2022-08-03T06:11:19.340Z,31.21
2022-08-03T06:14:07.271Z,32.68
2022-08-03T06:16:55.248Z,34.09
2022-08-03T06:19:43.263Z,35.47
2022-08-03T06:22:31.363Z,36.77
2022-08-03T06:25:21.171Z,37.82
2022-08-03T06:28:14.992Z,38.75
2022-08-03T06:31:11.642Z,39.37
2022-08-03T06:34:34.096Z,40.10
2022-08-03T06:37:07.731Z,40.60
2022-08-03T06:39:55.731Z,40.68
2022-08-03T06:42:44.366Z,40.57
2022-08-03T06:45:35.514Z,40.42
2022-08-03T06:48:27.897Z,40.45
2022-08-03T06:51:16.005Z,40.87
2022-08-03T06:54:05.075Z,41.39
2022-08-03T06:56:54.148Z,41.61
2022-08-03T07:00:10.364Z,41.66
2022-08-03T07:02:51.788Z,42.07
2022-08-03T07:05:46.800Z,42.68
2022-08-03T07:08:34.701Z,43.34
2022-08-03T07:11:24.385Z,44.04
2022-08-03T07:14:12.223Z,44.60
2022-08-03T07:17:00.423Z,44.76
2022-08-03T07:19:50.532Z,44.97
2022-08-03T07:22:39.229Z,45.36
2022-08-03T07:25:27.505Z,45.56
2022-08-03T07:28:15.450Z,45.66
2022-08-03T07:31:03.769Z,45.86
2022-08-03T07:33:51.465Z,45.94
2022-08-03T07:36:39.370Z,46.13
2022-08-03T07:39:27.376Z,46.30
2022-08-03T07:42:15.648Z,46.37
2022-08-03T07:45:04.567Z,46.23
2022-08-03T07:47:53.429Z,45.98
2022-08-03T07:50:42.202Z,45.77
2022-08-03T07:53:30.172Z,45.62
2022-08-03T07:56:18.049Z,45.73
2022-08-03T07:59:06.204Z,46.13
2022-08-03T08:01:56.840Z,46.39
2022-08-03T08:04:44.755Z,46.40
2022-08-03T08:07:32.936Z,46.35
2022-08-03T08:10:21.013Z,46.60
2022-08-03T08:13:08.797Z,47.08
2022-08-03T08:15:56.701Z,47.36
2022-08-03T08:18:44.516Z,47.39
2022-08-03T08:21:52.938Z,46.84
2022-08-03T08:24:40.899Z,46.21
2022-08-03T08:28:22.194Z,45.59
2022-08-03T08:30:41.785Z,45.38
2022-08-03T08:33:47.944Z,45.08
2022-08-03T08:36:38.185Z,44.64
2022-08-03T08:39:26.067Z,44.64
2022-08-03T08:42:15.789Z,44.82
2022-08-03T08:45:07.197Z,45.08
2022-08-03T08:48:01.023Z,45.16
2022-08-03T08:50:54.852Z,45.00
2022-08-03T08:53:48.068Z,44.93
2022-08-03T08:56:39.023Z,45.10
2022-08-03T08:59:27.425Z,45.11
2022-08-03T09:02:35.740Z,45.06
2022-08-03T09:05:36.236Z,45.02
2022-08-03T09:08:33.493Z,44.82
2022-08-03T09:11:57.685Z,44.54
2022-08-03T09:14:39.199Z,44.32
2022-08-03T09:17:41.409Z,44.39
2022-08-03T09:20:33.581Z,44.46
2022-08-03T09:23:59.596Z,44.47
2022-08-03T09:26:31.868Z,44.42
2022-08-03T09:29:21.992Z,44.34
2022-08-03T09:32:11.364Z,44.17
2022-08-03T09:35:05.382Z,43.77
2022-08-03T09:38:24.175Z,42.58
2022-08-03T09:41:19.830Z,42.14
2022-08-03T09:44:08.764Z,42.09
2022-08-03T09:47:16.991Z,41.75
2022-08-03T09:50:09.104Z,41.79
2022-08-03T09:53:02.271Z,41.94
2022-08-03T09:56:32.879Z,42.16
2022-08-03T09:59:02.329Z,42.35
2022-08-03T10:01:52.968Z,42.08
2022-08-03T10:04:53.059Z,41.79
2022-08-03T10:07:49.100Z,41.84
2022-08-03T10:10:44.429Z,41.89
2022-08-03T10:13:32.459Z,41.43
2022-08-03T10:16:25.586Z,40.87
2022-08-03T10:19:15.356Z,40.90
2022-08-03T10:22:12.476Z,41.11
2022-08-03T10:25:11.911Z,41.25
2022-08-03T10:28:04.624Z,41.33
2022-08-03T10:30:55.597Z,41.36
2022-08-03T10:33:51.813Z,40.74
2022-08-03T10:36:41.852Z,40.30
2022-08-03T10:39:30.987Z,40.46
2022-08-03T10:42:20.320Z,40.72
2022-08-03T10:45:26.929Z,40.90
2022-08-03T10:48:16.115Z,41.06
2022-08-03T10:51:05.059Z,41.21
2022-08-03T10:53:54.963Z,41.28
2022-08-03T10:57:13.396Z,40.61
2022-08-03T11:00:19.135Z,39.50
2022-08-03T11:03:14.899Z,39.50
2022-08-03T11:06:19.219Z,39.74
2022-08-03T11:09:10.175Z,40.14
2022-08-03T11:11:58.099Z,40.62
2022-08-03T11:14:48.425Z,40.93
2022-08-03T11:17:45.796Z,40.93
2022-08-03T11:20:55.419Z,40.99
2022-08-03T11:24:04.129Z,41.14
2022-08-03T11:27:20.027Z,41.16
2022-08-03T11:30:29.366Z,40.56
2022-08-03T11:33:31.375Z,39.89
2022-08-03T11:36:32.303Z,39.41
2022-08-03T11:39:20.527Z,39.02
2022-08-03T11:42:35.484Z,38.71
2022-08-03T11:45:23.306Z,38.46
2022-08-03T11:48:17.130Z,38.23
2022-08-03T11:51:08.312Z,37.90
2022-08-03T11:54:02.745Z,37.59
2022-08-03T11:56:51.168Z,37.28
2022-08-03T11:59:39.253Z,36.86
2022-08-03T12:02:27.325Z,36.31
2022-08-03T12:05:15.075Z,35.71
2022-08-03T12:08:06.736Z,35.23
2022-08-03T12:10:57.526Z,34.76
2022-08-03T12:14:45.747Z,34.40
2022-08-03T12:17:02.083Z,33.99
2022-08-03T12:19:50.021Z,33.57
2022-08-03T12:22:40.806Z,33.11
2022-08-03T12:25:39.465Z,32.79
2022-08-03T12:28:28.323Z,32.56
2022-08-03T12:31:26.146Z,32.36
2022-08-03T12:34:14.487Z,32.25
2022-08-03T12:37:22.301Z,32.12
2022-08-03T12:40:17.827Z,31.99
2022-08-03T12:43:13.554Z,31.79
2022-08-03T12:46:13.093Z,31.63
2022-08-03T12:49:09.767Z,31.48
2022-08-03T12:52:05.331Z,31.38
2022-08-03T12:54:56.901Z,31.37
2022-08-03T12:57:45.350Z,31.35
2022-08-03T13:00:33.715Z,31.30
2022-08-03T13:03:39.097Z,31.31
2022-08-03T13:06:29.841Z,31.33
2022-08-03T13:09:18.409Z,31.30
2022-08-03T13:12:12.089Z,31.26
2022-08-03T13:15:01.223Z,31.29
2022-08-03T13:17:49.344Z,31.31
2022-08-03T13:20:37.263Z,31.38
2022-08-03T13:23:25.398Z,31.44
2022-08-03T13:26:13.844Z,31.40
2022-08-03T13:29:01.772Z,31.25
2022-08-03T13:31:51.695Z,31.17
2022-08-03T13:34:40.269Z,31.20
2022-08-03T13:37:29.612Z,31.22
2022-08-03T13:40:17.959Z,31.21
2022-08-03T13:43:05.788Z,31.18
2022-08-03T13:45:57.782Z,31.12
2022-08-03T13:48:45.711Z,31.09
2022-08-03T13:51:34.827Z,31.07
2022-08-03T13:54:23.810Z,31.08
2022-08-03T13:58:02.971Z,31.09
2022-08-03T14:00:27.967Z,31.07
2022-08-03T14:03:17.449Z,30.99
2022-08-03T14:06:05.675Z,30.88
2022-08-03T14:08:55.888Z,30.79
2022-08-03T14:12:07.449Z,30.80
2022-08-03T14:14:56.998Z,30.86
2022-08-03T14:17:50.199Z,30.90
2022-08-03T14:20:50.136Z,30.95
2022-08-03T14:23:42.301Z,30.96
2022-08-03T14:26:30.845Z,31.00
2022-08-03T14:29:18.706Z,31.05
2022-08-03T14:32:09.717Z,31.10
2022-08-03T14:34:58.653Z,31.09
2022-08-03T14:37:46.534Z,31.08
2022-08-03T14:40:34.692Z,31.09
2022-08-03T14:43:22.946Z,31.08
2022-08-03T14:46:10.720Z,31.06
2022-08-03T14:50:28.637Z,31.10
2022-08-03T14:52:08.587Z,31.05
2022-08-03T14:54:56.778Z,30.95
2022-08-03T14:57:44.833Z,30.90
2022-08-03T15:00:34.402Z,30.88
2022-08-03T15:03:25.188Z,30.85
2022-08-03T15:06:13.609Z,30.81
2022-08-03T15:12:10.202Z,30.72
2022-08-03T15:14:58.019Z,30.68
2022-08-03T15:17:59.825Z,30.65
2022-08-03T15:20:50.940Z,30.63
2022-08-03T15:23:39.116Z,30.60
2022-08-03T15:26:36.461Z,30.59
2022-08-03T15:30:09.433Z,30.61
2022-08-03T15:32:37.130Z,30.59
2022-08-03T15:35:25.287Z,30.56
2022-08-03T15:38:13.783Z,30.52
2022-08-03T15:41:02.072Z,30.50
2022-08-03T15:43:54.172Z,30.47
2022-08-03T15:46:42.805Z,30.47
2022-08-03T15:49:30.829Z,30.45
2022-08-03T15:52:18.892Z,30.46
2022-08-03T15:55:08.144Z,30.47
2022-08-03T15:59:04.394Z,30.44
2022-08-03T16:01:19.110Z,30.37
2022-08-03T16:04:08.100Z,30.26
2022-08-03T16:06:56.259Z,30.15
2022-08-03T16:09:44.450Z,30.03
2022-08-03T16:12:33.998Z,29.94
2022-08-03T16:15:22.135Z,29.84
2022-08-03T16:18:12.507Z,29.74
2022-08-03T16:21:02.918Z,29.68
2022-08-03T16:23:52.171Z,29.62
2022-08-03T16:26:41.940Z,29.55
2022-08-03T16:29:33.677Z,29.42
2022-08-03T16:32:24.921Z,29.30
2022-08-03T16:35:19.662Z,29.20
2022-08-03T16:38:10.939Z,29.07
2022-08-03T16:41:00.221Z,28.95
2022-08-03T16:43:48.658Z,28.84
2022-08-03T16:46:37.397Z,28.72
2022-08-03T16:49:54.351Z,28.60
2022-08-03T16:52:39.670Z,28.49
2022-08-03T16:55:48.901Z,28.39
2022-08-03T16:58:44.375Z,28.29
2022-08-03T17:01:37.810Z,28.19
2022-08-03T17:04:27.473Z,28.09
2022-08-03T17:07:18.211Z,28.00
2022-08-03T17:10:09.866Z,27.90
2022-08-03T17:13:00.105Z,27.79
2022-08-03T17:16:01.573Z,27.69
2022-08-03T17:18:57.509Z,27.58
2022-08-03T17:22:04.201Z,27.47
2022-08-03T17:24:54.379Z,27.36
2022-08-03T17:28:48.435Z,27.25
2022-08-03T17:31:22.548Z,27.14
2022-08-03T17:34:26.273Z,27.01
2022-08-03T17:37:50.586Z,26.86
2022-08-03T17:40:29.207Z,26.73
2022-08-03T17:44:12.761Z,26.59
2022-08-03T17:46:29.748Z,26.46
2022-08-03T17:49:24.871Z,26.32
2022-08-03T17:52:21.668Z,26.18
2022-08-03T17:55:57.871Z,26.04
2022-08-03T17:58:55.596Z,25.87
2022-08-03T18:02:47.464Z,25.71
2022-08-03T18:06:10.347Z,25.51
2022-08-03T18:08:57.858Z,25.37
2022-08-03T18:11:55.462Z,25.21
2022-08-03T18:14:57.635Z,25.05
2022-08-03T18:17:55.654Z,24.90
2022-08-03T18:20:51.820Z,24.74
2022-08-03T18:23:39.941Z,24.60
2022-08-03T18:26:30.259Z,24.47
2022-08-03T18:29:22.889Z,24.32
2022-08-03T18:32:16.742Z,24.18
2022-08-03T18:35:07.647Z,24.04
2022-08-03T18:38:03.864Z,23.91
2022-08-03T18:41:00.302Z,23.77
2022-08-03T18:44:08.995Z,23.65
2022-08-03T18:47:23.495Z,23.52
2022-08-03T18:50:30.999Z,23.39
2022-08-03T18:54:04.102Z,23.27
2022-08-03T18:57:00.635Z,23.11
2022-08-03T19:00:14.864Z,22.97
2022-08-03T19:03:10.237Z,22.85
2022-08-03T19:06:15.870Z,22.72
2022-08-03T19:09:16.917Z,22.60
2022-08-03T19:12:39.836Z,22.50
2022-08-03T19:15:36.446Z,22.37
2022-08-03T19:18:32.779Z,22.28
2022-08-03T19:21:22.921Z,22.20
2022-08-03T19:24:13.847Z,22.37
2022-08-03T19:27:05.220Z,23.39
2022-08-03T19:30:19.966Z,23.75
2022-08-03T19:33:16.653Z,23.23
2022-08-03T19:36:10.897Z,22.86
2022-08-03T19:39:00.596Z,22.60
2022-08-03T19:41:52.393Z,22.40
2022-08-03T19:44:50.752Z,22.24
2022-08-03T19:47:56.063Z,22.40
2022-08-03T19:50:48.598Z,23.41
2022-08-03T19:53:44.980Z,24.00
2022-08-03T19:56:34.455Z,24.12
2022-08-03T19:59:26.390Z,23.53
2022-08-03T20:02:17.452Z,23.00
2022-08-03T20:05:15.965Z,22.60
2022-08-03T20:08:07.676Z,22.33
2022-08-03T20:10:59.848Z,22.36
2022-08-03T20:13:54.727Z,23.23
2022-08-03T20:16:45.134Z,23.93
2022-08-03T20:19:35.085Z,24.07
2022-08-03T20:22:34.085Z,23.42
2022-08-03T20:25:38.835Z,22.82
2022-08-03T20:28:50.631Z,22.41
2022-08-03T20:31:39.090Z,22.10
2022-08-03T20:34:27.041Z,22.11
2022-08-03T20:37:15.723Z,23.02
2022-08-03T20:40:07.724Z,23.78
2022-08-03T20:42:55.866Z,24.27
2022-08-03T20:48:54.112Z,23.60
2022-08-03T20:51:50.007Z,22.98
2022-08-03T20:54:41.579Z,22.53
2022-08-03T20:57:33.169Z,22.22
2022-08-03T21:00:21.960Z,21.96
2022-08-03T21:03:09.956Z,22.00
2022-08-03T21:06:06.563Z,22.94
2022-08-03T21:09:05.503Z,23.71
2022-08-03T21:11:55.984Z,23.89
2022-08-03T21:13:07.322Z,24.38
2022-08-03T21:15:01.860Z,23.27
2022-08-03T21:17:54.882Z,22.72
2022-08-03T21:20:47.891Z,22.37
2022-08-03T21:23:48.682Z,22.13
2022-08-03T21:26:39.898Z,21.94
2022-08-03T21:29:28.768Z,21.81
2022-08-03T21:32:32.634Z,21.69
2022-08-03T21:35:23.943Z,21.59
2022-08-03T21:38:20.903Z,21.52
2022-08-03T21:41:20.706Z,21.46
2022-08-03T21:44:09.830Z,21.42
2022-08-03T21:47:00.183Z,21.38
2022-08-03T21:50:06.649Z,21.35
2022-08-03T21:52:59.447Z,21.32
2022-08-03T21:56:00.098Z,21.30
2022-08-03T21:59:00.120Z,21.30
2022-08-03T22:01:55.276Z,21.31
2022-08-03T22:04:53.223Z,21.32
2022-08-03T22:07:44.963Z,21.33
2022-08-03T22:10:32.975Z,21.34
2022-08-03T22:13:42.979Z,21.36
2022-08-03T22:16:30.587Z,21.37
2022-08-03T22:19:18.882Z,21.39
2022-08-03T22:22:13.811Z,21.39
2022-08-03T22:25:12.380Z,21.39
2022-08-03T22:28:10.269Z,21.40
2022-08-03T22:31:00.279Z,21.39
2022-08-03T22:34:08.273Z,21.39
2022-08-03T22:37:02.680Z,21.39
2022-08-03T22:39:51.386Z,21.39
2022-08-03T22:42:42.493Z,21.37
2022-08-03T22:46:06.404Z,21.35
2022-08-03T22:48:40.684Z,21.33
2022-08-03T22:51:30.464Z,21.31
2022-08-03T22:54:18.432Z,21.30
2022-08-03T22:57:07.702Z,21.28
2022-08-03T22:59:55.558Z,21.28
2022-08-03T23:02:48.770Z,21.27
2022-08-03T23:06:01.351Z,21.27
2022-08-03T23:08:47.093Z,21.26
2022-08-03T23:11:45.935Z,21.24
2022-08-03T23:14:38.946Z,21.24
2022-08-03T23:17:31.009Z,21.22
2022-08-03T23:20:20.293Z,21.21
2022-08-03T23:23:15.149Z,21.19
2022-08-03T23:26:08.635Z,21.19
2022-08-03T23:29:01.471Z,21.18
2022-08-03T23:31:50.026Z,21.19
2022-08-03T23:34:59.279Z,21.21
2022-08-03T23:38:04.471Z,21.24
2022-08-03T23:41:00.985Z,21.27
2022-08-03T23:43:54.043Z,21.31
2022-08-03T23:46:44.331Z,21.34
2022-08-03T23:49:32.954Z,21.37
2022-08-03T23:52:49.670Z,21.38
2022-08-03T23:56:11.613Z,21.41
2022-08-03T23:59:42.704Z,21.43
